createdAt,value
2023-05-16T00:02:16.311Z,5.83
2023-05-16T00:04:46.102Z,4.77
2023-05-16T00:07:14.403Z,5.00
2023-05-16T00:09:42.595Z,4.67
2023-05-16T00:12:11.232Z,5.17
2023-05-16T00:14:39.599Z,4.60
2023-05-16T00:17:11.932Z,5.93
2023-05-16T00:19:42.103Z,5.33
2023-05-16T00:22:11.436Z,5.20
2023-05-16T00:24:39.734Z,6.63
2023-05-16T00:27:07.951Z,4.90
2023-05-16T00:29:36.047Z,5.53
2023-05-16T00:32:04.116Z,4.83
2023-05-16T00:34:33.676Z,5.10
2023-05-16T00:37:01.939Z,4.53
2023-05-16T00:39:30.909Z,6.00
2023-05-16T00:41:59.027Z,6.17
2023-05-16T00:44:27.156Z,5.00
2023-05-16T00:46:55.591Z,4.70
2023-05-16T00:49:23.692Z,5.30
2023-05-16T00:51:54.198Z,6.60
2023-05-16T00:54:25.967Z,4.93
2023-05-16T00:56:54.321Z,4.60
2023-05-16T00:59:22.526Z,5.10
2023-05-16T01:01:52.462Z,5.00
2023-05-16T01:04:21.629Z,5.50
2023-05-16T01:06:49.688Z,4.50
2023-05-16T01:09:19.430Z,4.60
2023-05-16T01:11:54.100Z,5.20
2023-05-16T01:14:30.642Z,4.93
2023-05-16T01:17:07.825Z,4.90
2023-05-16T01:19:52.415Z,4.67
2023-05-16T01:22:32.857Z,4.70
2023-05-16T01:25:12.842Z,5.10
2023-05-16T01:27:42.924Z,5.10
2023-05-16T01:30:19.120Z,6.80
2023-05-16T01:32:47.428Z,5.77
2023-05-16T01:35:17.834Z,4.70
2023-05-16T01:37:51.584Z,5.47
2023-05-16T01:40:43.993Z,5.90
2023-05-16T01:43:18.083Z,5.17
2023-05-16T01:45:52.121Z,6.33
2023-05-16T01:48:24.790Z,4.93
2023-05-16T01:50:57.578Z,6.13
2023-05-16T01:53:29.159Z,5.10
2023-05-16T01:56:01.072Z,5.00
2023-05-16T01:58:34.072Z,5.07
2023-05-16T02:01:04.334Z,6.87
2023-05-16T02:03:32.811Z,5.17
2023-05-16T02:06:01.540Z,5.37
2023-05-16T02:08:30.388Z,5.50
2023-05-16T02:10:58.528Z,5.23
2023-05-16T02:13:26.730Z,5.53
2023-05-16T02:15:56.171Z,4.97
2023-05-16T02:18:24.581Z,4.93
2023-05-16T02:20:53.474Z,5.40
2023-05-16T02:23:21.498Z,6.03
2023-05-16T02:25:49.911Z,4.60
2023-05-16T02:28:17.975Z,5.40
2023-05-16T02:30:46.142Z,5.73
2023-05-16T02:33:15.572Z,5.17
2023-05-16T02:35:43.738Z,5.07
2023-05-16T02:38:11.766Z,5.13
2023-05-16T02:40:39.841Z,5.30
2023-05-16T02:43:07.882Z,6.63
2023-05-16T02:45:37.047Z,6.30
2023-05-16T02:48:05.421Z,5.83
2023-05-16T02:50:34.928Z,5.43
2023-05-16T02:53:02.983Z,6.17
2023-05-16T02:55:31.075Z,6.07
2023-05-16T02:57:59.312Z,5.57
2023-05-16T03:00:27.392Z,5.47
2023-05-16T03:02:55.668Z,6.10
2023-05-16T03:05:26.229Z,6.27
2023-05-16T03:07:56.383Z,5.37
2023-05-16T03:10:24.496Z,6.47
2023-05-16T03:12:52.718Z,5.97
2023-05-16T03:15:20.885Z,6.13
2023-05-16T03:17:49.298Z,6.40
2023-05-16T03:20:17.342Z,7.90
2023-05-16T03:22:45.413Z,6.50
2023-05-16T03:25:14.884Z,6.70
2023-05-16T03:27:42.903Z,6.90
2023-05-16T03:30:11.472Z,7.03
2023-05-16T03:32:39.767Z,7.23
2023-05-16T03:35:08.239Z,6.40
2023-05-16T03:37:36.278Z,6.40
2023-05-16T03:40:05.824Z,7.50
2023-05-16T03:42:35.263Z,6.63
2023-05-16T03:45:03.364Z,5.70
2023-05-16T03:47:31.991Z,6.67
2023-05-16T03:50:00.240Z,6.43
2023-05-16T03:52:28.699Z,6.30
2023-05-16T03:54:57.009Z,5.70
2023-05-16T03:57:25.124Z,6.07
2023-05-16T03:59:54.735Z,6.87
2023-05-16T04:02:23.565Z,6.50
2023-05-16T04:04:52.208Z,6.20
2023-05-16T04:07:22.558Z,6.83
2023-05-16T04:09:53.151Z,7.53
2023-05-16T04:12:21.943Z,5.90
2023-05-16T04:14:50.571Z,6.77
2023-05-16T04:17:20.603Z,6.93
2023-05-16T04:19:49.603Z,6.33
2023-05-16T04:22:18.051Z,7.50
2023-05-16T04:24:46.842Z,9.30
2023-05-16T04:27:15.399Z,7.90
2023-05-16T04:29:43.978Z,7.27
2023-05-16T04:32:12.773Z,9.50
2023-05-16T04:34:45.653Z,7.93
2023-05-16T04:37:14.205Z,9.23
2023-05-16T04:39:43.613Z,9.80
2023-05-16T04:42:12.442Z,10.40
2023-05-16T04:44:41.091Z,10.10
2023-05-16T04:47:10.016Z,9.10
2023-05-16T04:49:38.488Z,10.80
2023-05-16T04:52:10.004Z,8.50
2023-05-16T04:54:40.215Z,9.37
2023-05-16T04:57:10.199Z,10.27
2023-05-16T04:59:39.261Z,9.77
2023-05-16T05:02:08.285Z,11.43
2023-05-16T05:04:36.784Z,10.50
2023-05-16T05:07:05.812Z,8.33
2023-05-16T05:09:35.841Z,11.10
2023-05-16T05:12:04.367Z,12.10
2023-05-16T05:14:32.820Z,9.87
2023-05-16T05:17:01.661Z,12.60
2023-05-16T05:19:30.403Z,11.93
2023-05-16T05:21:59.446Z,10.23
2023-05-16T05:24:28.175Z,10.60
2023-05-16T05:26:58.810Z,10.40
2023-05-16T05:29:27.652Z,11.80
2023-05-16T05:31:56.135Z,11.63
2023-05-16T05:34:24.360Z,10.60
2023-05-16T05:36:52.933Z,11.17
2023-05-16T05:39:21.459Z,11.60
2023-05-16T05:41:49.974Z,10.63
2023-05-16T05:44:19.926Z,11.43
2023-05-16T05:46:48.815Z,9.43
2023-05-16T05:49:17.309Z,10.47
2023-05-16T05:51:45.591Z,13.40
2023-05-16T05:54:14.226Z,11.10
2023-05-16T05:56:44.313Z,11.33
2023-05-16T05:59:14.006Z,8.90
2023-05-16T06:01:46.137Z,11.90
2023-05-16T06:04:14.746Z,13.10
2023-05-16T06:06:43.356Z,11.03
2023-05-16T06:09:12.626Z,10.77
2023-05-16T06:11:41.709Z,11.10
2023-05-16T06:14:10.207Z,11.47
2023-05-16T06:16:40.541Z,11.73
2023-05-16T06:19:12.480Z,10.50
2023-05-16T06:21:41.188Z,13.83
2023-05-16T06:24:09.727Z,12.57
2023-05-16T06:26:38.305Z,10.27
2023-05-16T06:29:06.560Z,10.87
2023-05-16T06:31:35.032Z,9.93
2023-05-16T06:34:03.635Z,13.60
2023-05-16T06:36:34.284Z,12.10
2023-05-16T06:39:02.674Z,11.03
2023-05-16T06:41:31.142Z,12.53
2023-05-16T06:44:00.286Z,10.73
2023-05-16T06:46:29.016Z,9.90
2023-05-16T06:48:57.828Z,11.60
2023-05-16T06:51:26.569Z,11.33
2023-05-16T06:53:56.422Z,10.23
2023-05-16T06:56:25.452Z,12.07
2023-05-16T06:58:53.850Z,14.77
2023-05-16T07:01:22.407Z,10.10
2023-05-16T07:03:51.607Z,7.93
2023-05-16T07:06:19.946Z,9.77
2023-05-16T07:08:48.601Z,9.47
2023-05-16T07:11:18.336Z,10.87
2023-05-16T07:13:47.323Z,11.97
2023-05-16T07:16:16.122Z,8.90
2023-05-16T07:18:44.648Z,10.10
2023-05-16T07:21:13.036Z,11.87
2023-05-16T07:23:41.776Z,11.23
2023-05-16T07:26:10.963Z,11.60
2023-05-16T07:28:41.068Z,10.37
2023-05-16T07:31:09.861Z,10.13
2023-05-16T07:33:38.609Z,11.43
2023-05-16T07:38:43.752Z,10.77
2023-05-16T07:41:12.394Z,10.87
2023-05-16T07:43:42.836Z,12.07
2023-05-16T07:46:12.138Z,11.97
2023-05-16T07:48:41.130Z,12.20
2023-05-16T07:51:10.224Z,12.77
2023-05-16T07:53:38.900Z,11.30
2023-05-16T07:56:08.781Z,10.10
2023-05-16T07:58:37.612Z,11.43
2023-05-16T08:01:08.044Z,10.33
2023-05-16T08:03:37.439Z,11.40
2023-05-16T08:06:06.598Z,12.77
2023-05-16T08:08:35.289Z,11.33
2023-05-16T08:11:03.748Z,10.80
2023-05-16T08:13:32.270Z,11.90
2023-05-16T08:16:01.225Z,10.60
2023-05-16T08:18:31.659Z,13.83
2023-05-16T08:21:00.655Z,12.17
2023-05-16T08:23:29.419Z,12.10
2023-05-16T08:25:58.898Z,11.93
2023-05-16T08:28:27.777Z,14.03
2023-05-16T08:30:56.588Z,10.27
2023-05-16T08:33:25.151Z,10.97
2023-05-16T08:35:55.323Z,10.53
2023-05-16T08:38:23.894Z,10.53
2023-05-16T08:40:52.591Z,10.67
2023-05-16T08:43:21.122Z,13.80
2023-05-16T08:45:49.593Z,11.67
2023-05-16T08:48:21.084Z,14.70
2023-05-16T08:50:49.791Z,10.87
2023-05-16T08:53:25.579Z,11.63
2023-05-16T08:55:57.346Z,13.43
2023-05-16T08:58:26.961Z,11.20
2023-05-16T09:00:56.421Z,14.27
2023-05-16T09:03:25.972Z,12.23
2023-05-16T09:05:54.554Z,11.67
2023-05-16T09:08:25.252Z,12.67
2023-05-16T09:10:54.055Z,14.37
2023-05-16T09:13:22.618Z,8.70
2023-05-16T09:16:10.663Z,11.00
2023-05-16T09:18:39.884Z,13.63
2023-05-16T09:21:09.080Z,12.63
2023-05-16T09:23:40.736Z,14.73
2023-05-16T09:26:09.255Z,11.83
2023-05-16T09:28:40.169Z,13.73
2023-05-16T09:31:22.915Z,12.70
2023-05-16T09:33:51.655Z,12.33
2023-05-16T09:36:20.461Z,12.40
2023-05-16T09:38:53.066Z,13.70
2023-05-16T09:41:23.576Z,11.53
2023-05-16T09:43:54.935Z,14.00
2023-05-16T09:46:28.084Z,16.37
2023-05-16T09:48:58.127Z,10.20
2023-05-16T09:51:28.016Z,15.23
2023-05-16T09:54:00.710Z,13.43
2023-05-16T09:56:30.595Z,14.33
2023-05-16T09:58:59.229Z,16.37
2023-05-16T10:01:28.029Z,14.37
2023-05-16T10:03:57.720Z,14.23
2023-05-16T10:06:27.318Z,15.20
2023-05-16T10:08:57.732Z,15.07
2023-05-16T10:11:28.349Z,14.87
2023-05-16T10:13:57.277Z,13.20
2023-05-16T10:16:27.507Z,16.20
2023-05-16T10:18:58.644Z,17.47
2023-05-16T10:21:30.095Z,15.70
2023-05-16T10:24:04.829Z,14.53
2023-05-16T10:26:34.748Z,14.77
2023-05-16T10:29:04.337Z,14.40
2023-05-16T10:31:32.929Z,12.43
2023-05-16T10:34:02.396Z,13.80
2023-05-16T10:36:33.036Z,16.70
2023-05-16T10:39:05.412Z,14.87
2023-05-16T10:41:35.149Z,15.10
2023-05-16T10:44:05.044Z,15.87
2023-05-16T10:46:34.107Z,14.23
2023-05-16T10:49:21.852Z,13.07
2023-05-16T10:52:05.581Z,15.50
2023-05-16T10:54:40.768Z,16.67
2023-05-16T10:57:12.372Z,17.07
2023-05-16T10:59:47.006Z,16.23
2023-05-16T11:02:30.451Z,12.80
2023-05-16T11:05:00.546Z,12.87
2023-05-16T11:07:34.137Z,15.40
2023-05-16T11:10:09.932Z,17.03
2023-05-16T11:12:40.461Z,14.43
2023-05-16T11:15:25.174Z,14.80
2023-05-16T11:18:06.661Z,17.30
2023-05-16T11:20:37.366Z,15.77
2023-05-16T11:23:26.918Z,15.73
2023-05-16T11:26:01.106Z,17.50
2023-05-16T11:28:30.532Z,16.00
2023-05-16T11:31:01.137Z,17.00
2023-05-16T11:33:35.573Z,17.10
2023-05-16T11:36:15.786Z,15.90
2023-05-16T11:38:45.035Z,14.67
2023-05-16T11:41:17.717Z,14.83
2023-05-16T11:43:47.305Z,13.40
2023-05-16T11:46:17.160Z,16.03
2023-05-16T11:48:47.678Z,16.43
2023-05-16T11:51:21.197Z,14.90
2023-05-16T11:53:51.023Z,15.10
2023-05-16T11:56:22.404Z,17.70
2023-05-16T11:58:51.899Z,14.53
2023-05-16T12:01:20.638Z,17.17
2023-05-16T12:03:57.640Z,16.27
2023-05-16T12:06:26.777Z,16.90
2023-05-16T12:08:55.348Z,17.00
2023-05-16T12:11:26.706Z,17.30
2023-05-16T12:13:55.406Z,16.10
2023-05-16T12:16:24.820Z,15.40
2023-05-16T12:18:53.561Z,16.33
2023-05-16T12:21:22.410Z,20.20
2023-05-16T12:23:51.286Z,17.37
2023-05-16T12:26:30.844Z,17.57
2023-05-16T12:29:00.971Z,20.07
2023-05-16T12:31:32.601Z,18.40
2023-05-16T12:34:01.432Z,18.30
2023-05-16T12:36:34.987Z,19.03
2023-05-16T12:39:05.201Z,16.43
2023-05-16T12:41:42.808Z,16.53
2023-05-16T12:44:17.602Z,19.23
2023-05-16T12:46:47.270Z,18.20
2023-05-16T12:49:16.158Z,19.27
2023-05-16T12:51:50.983Z,18.07
2023-05-16T12:54:20.613Z,16.30
2023-05-16T12:56:51.090Z,18.03
2023-05-16T12:59:20.506Z,19.00
2023-05-16T13:01:49.406Z,16.40
2023-05-16T13:04:20.295Z,15.43
2023-05-16T13:09:21.343Z,17.73
2023-05-16T13:11:52.801Z,17.30
2023-05-16T13:14:21.309Z,16.60
2023-05-16T13:16:50.012Z,14.03
2023-05-16T13:19:18.893Z,12.53
2023-05-16T13:21:47.482Z,14.37
2023-05-16T13:24:15.861Z,14.47
2023-05-16T13:26:44.551Z,15.53
2023-05-16T13:29:14.957Z,13.67
2023-05-16T13:31:46.758Z,14.70
2023-05-16T13:34:15.169Z,15.80
2023-05-16T13:36:54.071Z,15.97
2023-05-16T13:39:24.021Z,10.37
2023-05-16T13:41:53.151Z,9.50
2023-05-16T13:44:23.870Z,8.40
2023-05-16T13:46:52.246Z,8.50
2023-05-16T13:49:21.091Z,9.70
2023-05-16T13:51:50.024Z,8.73
2023-05-16T13:54:18.826Z,9.80
2023-05-16T13:56:47.685Z,7.57
2023-05-16T13:59:23.252Z,8.30
2023-05-16T14:01:57.777Z,8.77
2023-05-16T14:04:27.368Z,7.67
2023-05-16T14:06:56.848Z,7.87
2023-05-16T14:09:25.375Z,9.97
2023-05-16T14:11:53.922Z,9.63
2023-05-16T14:14:22.557Z,7.73
2023-05-16T14:16:51.679Z,9.90
2023-05-16T14:19:22.191Z,7.47
2023-05-16T14:21:51.424Z,7.03
2023-05-16T14:24:20.705Z,7.83
2023-05-16T14:26:49.915Z,7.03
2023-05-16T14:29:20.983Z,6.73
2023-05-16T14:31:51.097Z,7.93
2023-05-16T14:34:22.409Z,8.43
2023-05-16T14:36:52.891Z,7.20
2023-05-16T14:39:21.724Z,8.97
2023-05-16T14:41:50.661Z,7.20
2023-05-16T14:44:20.580Z,8.13
2023-05-16T14:46:51.658Z,7.70
2023-05-16T14:49:22.292Z,7.67
2023-05-16T14:51:51.786Z,6.90
2023-05-16T14:54:21.604Z,7.57
2023-05-16T14:56:50.485Z,7.80
2023-05-16T14:59:20.530Z,7.03
2023-05-16T15:01:49.965Z,7.43
2023-05-16T15:04:18.356Z,8.03
2023-05-16T15:06:49.140Z,8.47
2023-05-16T15:09:19.154Z,7.97
2023-05-16T15:11:47.864Z,6.77
2023-05-16T15:14:16.910Z,6.60
2023-05-16T15:16:47.304Z,6.63
2023-05-16T15:19:17.200Z,7.37
2023-05-16T15:21:48.170Z,7.20
2023-05-16T15:24:17.488Z,7.80
2023-05-16T15:26:46.361Z,9.03
2023-05-16T15:29:15.964Z,7.63
2023-05-16T15:31:44.537Z,8.10
2023-05-16T15:34:14.034Z,9.47
2023-05-16T15:36:42.715Z,10.10
2023-05-16T15:39:12.871Z,7.53
2023-05-16T15:42:01.182Z,10.57
2023-05-16T15:44:30.621Z,9.73
2023-05-16T15:46:59.132Z,8.73
2023-05-16T15:49:27.884Z,8.87
2023-05-16T15:51:59.685Z,10.70
2023-05-16T15:54:30.507Z,9.00
2023-05-16T15:56:59.268Z,7.93
2023-05-16T15:59:28.676Z,7.40
2023-05-16T16:01:57.088Z,10.10
2023-05-16T16:04:25.535Z,9.77
2023-05-16T16:06:53.610Z,10.80
2023-05-16T16:09:21.763Z,9.60
2023-05-16T16:11:56.011Z,9.53
2023-05-16T16:14:24.808Z,8.50
2023-05-16T16:16:52.956Z,10.53
2023-05-16T16:19:21.227Z,10.30
2023-05-16T16:21:49.542Z,8.47
2023-05-16T16:24:17.635Z,8.90
2023-05-16T16:26:46.253Z,10.30
2023-05-16T16:29:15.750Z,8.03
2023-05-16T16:31:43.888Z,9.83
2023-05-16T16:34:11.963Z,9.37
2023-05-16T16:36:40.397Z,11.00
2023-05-16T16:39:10.379Z,11.13
2023-05-16T16:41:38.545Z,11.37
2023-05-16T16:44:06.871Z,10.63
2023-05-16T16:46:36.831Z,10.13
2023-05-16T16:49:05.431Z,10.77
2023-05-16T16:51:35.927Z,10.77
2023-05-16T16:54:04.093Z,11.77
2023-05-16T16:56:32.318Z,10.57
2023-05-16T16:59:00.481Z,10.00
2023-05-16T17:01:32.066Z,12.57
2023-05-16T17:04:02.153Z,11.70
2023-05-16T17:06:30.812Z,10.43
2023-05-16T17:09:02.342Z,12.00
2023-05-16T17:11:30.850Z,10.60
2023-05-16T17:13:59.652Z,13.53
2023-05-16T17:16:29.245Z,12.43
2023-05-16T17:18:57.423Z,11.33
2023-05-16T17:21:28.129Z,11.03
2023-05-16T17:23:58.100Z,11.03
2023-05-16T17:26:27.404Z,13.73
2023-05-16T17:28:56.428Z,14.93
2023-05-16T17:31:24.565Z,11.00
2023-05-16T17:33:53.250Z,13.23
2023-05-16T17:36:21.824Z,12.83
2023-05-16T17:38:51.226Z,12.83
2023-05-16T17:41:20.694Z,12.67
2023-05-16T17:43:48.989Z,12.70
2023-05-16T17:46:17.200Z,9.87
2023-05-16T17:48:45.531Z,11.20
2023-05-16T17:51:13.650Z,10.03
2023-05-16T17:53:41.750Z,14.73
2023-05-16T17:56:11.264Z,10.60
2023-05-16T17:58:39.579Z,11.07
2023-05-16T18:01:09.378Z,12.97
2023-05-16T18:03:38.692Z,11.43
2023-05-16T18:06:07.011Z,9.70
2023-05-16T18:08:35.359Z,10.97
2023-05-16T18:11:03.468Z,10.23
2023-05-16T18:13:33.012Z,12.97
2023-05-16T18:16:01.194Z,9.60
2023-05-16T18:18:29.398Z,11.70
2023-05-16T18:20:57.992Z,9.87
2023-05-16T18:23:26.201Z,10.70
2023-05-16T18:25:54.475Z,9.80
2023-05-16T18:28:22.916Z,9.70
2023-05-16T18:30:52.537Z,9.40
2023-05-16T18:33:20.906Z,10.07
2023-05-16T18:35:49.341Z,9.07
2023-05-16T18:38:31.453Z,10.23
2023-05-16T18:41:00.669Z,12.60
2023-05-16T18:43:29.102Z,10.47
2023-05-16T18:45:58.869Z,8.43
2023-05-16T18:48:27.297Z,10.47
2023-05-16T18:50:55.908Z,12.10
2023-05-16T18:53:24.141Z,13.03
2023-05-16T18:55:52.358Z,9.20
2023-05-16T18:58:20.548Z,12.87
2023-05-16T19:00:48.778Z,11.33
2023-05-16T19:03:18.553Z,9.70
2023-05-16T19:05:47.574Z,12.93
2023-05-16T19:08:16.436Z,9.70
2023-05-16T19:10:44.940Z,9.30
2023-05-16T19:13:13.185Z,12.00
2023-05-16T19:15:41.310Z,12.53
2023-05-16T19:18:09.582Z,14.00
2023-05-16T19:20:39.371Z,21.30
2023-05-16T19:23:07.681Z,14.73
2023-05-16T19:25:35.974Z,14.20
2023-05-16T19:28:04.310Z,15.60
2023-05-16T19:30:32.553Z,16.97
2023-05-16T19:33:00.778Z,15.93
2023-05-16T19:35:29.234Z,16.90
2023-05-16T19:37:58.951Z,33.13
2023-05-16T19:40:27.239Z,13.70
2023-05-16T19:42:55.344Z,35.33
2023-05-16T19:45:24.418Z,11.90
2023-05-16T19:47:52.757Z,16.67
2023-05-16T19:50:22.022Z,14.03
2023-05-16T19:52:50.259Z,12.60
2023-05-16T19:55:19.879Z,11.57
2023-05-16T19:57:47.988Z,15.23
2023-05-16T20:00:17.264Z,12.60
2023-05-16T20:02:45.678Z,14.80
2023-05-16T20:05:14.492Z,17.80
2023-05-16T20:07:42.749Z,8.00
2023-05-16T20:10:11.478Z,8.50
2023-05-16T20:12:41.236Z,9.83
2023-05-16T20:15:10.990Z,9.33
2023-05-16T20:17:41.437Z,8.73
2023-05-16T20:20:11.424Z,8.20
2023-05-16T20:22:41.444Z,8.03
2023-05-16T20:25:11.710Z,14.80
2023-05-16T20:27:42.247Z,17.43
2023-05-16T20:30:12.005Z,11.63
2023-05-16T20:32:40.252Z,11.90
2023-05-16T20:35:10.701Z,15.70
2023-05-16T20:37:39.889Z,14.07
2023-05-16T20:40:09.281Z,13.23
2023-05-16T20:42:37.553Z,14.00
2023-05-16T20:45:08.097Z,8.60
2023-05-16T20:47:36.244Z,13.17
2023-05-16T20:50:04.604Z,14.50
2023-05-16T20:52:32.774Z,12.77
2023-05-16T20:55:01.482Z,12.80
2023-05-16T20:57:29.773Z,13.57
2023-05-16T20:59:57.887Z,10.87
2023-05-16T21:02:27.322Z,9.23
2023-05-16T21:04:56.190Z,9.93
2023-05-16T21:07:26.214Z,9.13
2023-05-16T21:09:54.378Z,7.43
2023-05-16T21:12:22.593Z,6.67
2023-05-16T21:14:50.671Z,5.30
2023-05-16T21:17:18.822Z,5.33
2023-05-16T21:19:48.320Z,5.70
2023-05-16T21:22:16.408Z,4.87
2023-05-16T21:24:44.506Z,4.70
2023-05-16T21:27:12.534Z,6.00
2023-05-16T21:29:40.703Z,5.20
2023-05-16T21:32:09.190Z,4.60
2023-05-16T21:34:37.354Z,4.67
2023-05-16T21:37:08.215Z,4.27
2023-05-16T21:39:36.380Z,4.33
2023-05-16T21:42:04.847Z,3.40
2023-05-16T21:44:33.035Z,4.67
2023-05-16T21:47:01.101Z,4.17
2023-05-16T21:49:29.176Z,3.30
2023-05-16T21:51:57.275Z,5.33
2023-05-16T21:54:26.665Z,4.93
2023-05-16T21:56:54.682Z,4.33
2023-05-16T21:59:22.938Z,4.30
2023-05-16T22:01:51.062Z,4.33
2023-05-16T22:04:19.187Z,5.10
2023-05-16T22:06:47.298Z,3.60
2023-05-16T22:09:15.437Z,6.20
2023-05-16T22:11:44.858Z,4.20
2023-05-16T22:14:13.092Z,5.07
2023-05-16T22:16:41.228Z,3.77
2023-05-16T22:19:09.444Z,4.27
2023-05-16T22:21:37.707Z,4.60
2023-05-16T22:24:06.453Z,4.03
2023-05-16T22:26:35.156Z,4.10
2023-05-16T22:29:04.541Z,3.70
2023-05-16T22:31:32.728Z,4.73
2023-05-16T22:34:01.018Z,3.80
2023-05-16T22:36:29.316Z,4.33
2023-05-16T22:38:57.426Z,5.40
2023-05-16T22:41:25.656Z,5.33
2023-05-16T22:43:53.698Z,3.90
2023-05-16T22:46:23.212Z,4.50
2023-05-16T22:48:51.313Z,3.77
2023-05-16T22:51:19.408Z,4.40
2023-05-16T22:53:47.485Z,3.80
2023-05-16T22:56:15.537Z,4.50
2023-05-16T22:58:43.670Z,3.97
2023-05-16T23:01:11.855Z,4.43
2023-05-16T23:03:41.413Z,4.87
2023-05-16T23:06:09.753Z,4.43
2023-05-16T23:08:37.938Z,3.93
2023-05-16T23:11:06.226Z,4.37
2023-05-16T23:13:34.357Z,4.67
2023-05-16T23:16:02.602Z,4.70
2023-05-16T23:18:30.912Z,4.00
2023-05-16T23:21:00.523Z,4.20
2023-05-16T23:23:28.666Z,3.70
2023-05-16T23:25:56.879Z,4.10
2023-05-16T23:28:25.085Z,3.70
2023-05-16T23:30:53.081Z,5.70
2023-05-16T23:33:21.271Z,5.83
2023-05-16T23:35:49.480Z,3.10
2023-05-16T23:38:19.005Z,2.80
2023-05-16T23:40:47.219Z,4.40
2023-05-16T23:43:15.697Z,3.97
2023-05-16T23:45:43.764Z,4.00
2023-05-16T23:48:12.038Z,3.40
2023-05-16T23:50:40.161Z,3.40
2023-05-16T23:53:08.311Z,4.23
2023-05-16T23:55:37.886Z,4.63
2023-05-16T23:58:06.034Z,3.60
